Αρχική σελίδα
METAR-TAF:

METAR-TAF

Αεροδρόμια :

Μόσχα-Σερεμέτιεβο, Ρωσία

γεωγραφικό πλάτος: 55-58N, γεωγραφικό μήκος: 037-25E, υψόμετρο: 190 μ

Παρών καιρός

Η αναφορά έγινε 27 λεπτά πριν, στις 22:30 UTC
Άνεμος 6 kt από Ν
Θερμοκρασία 6°C
Υγρασία 81%
Πίεση 1026 hPa
Ορατότητα 10 χλμ και άνω
Νεφοσκεπής σε ύψος 3900 πόδια

METAR: UUEE 212230Z 19003MPS 9999 OVC039 06/03 Q1026 R24C/CLRD62 NOSIG

Χρόνος: 01:57 (22:57 UTC)

Πρόγνωση Καιρού

Η αναφορά έγινε 3 ώρες και 1 λεπτά πριν, στις 19:56 UTC
Η πρόγνωση ισχύει από τις 21 στις 21 UTC έως τις 22 στις 21 UTC
Άνεμος 4 kt από ΝΔ
Ορατότητα: 9000 μ
Αρκετά νέφη σε ύψος 1500 πόδια
Καθιστάμενος
από 22 στις 06 UTC έως τις 22 στις 08 UTC
Άνεμος 14 kt από ΝΔ

TAF: UUEE 211956Z 2121/2221 22002MPS 9000 BKN015 TX08/2212Z TN02/2203Z BECMG 2206/2208 22007MPS

Μετεωρολογικές αναφορές και προγνώσεις για περισσότερα από 4000 αεροδρόμια (δελτία METAR και TAF).

Οι διαθέσιμοι σταθμοί απεικονίζονται στο χάρτη με κίτρινες και κόκκινες κουκκίδες.

Μετακινήστε το ποντίκι πάνω από τις κουκκίδες για να δείτε το όνομα του σταθμού.

Στη συνέχεια, κάντε κλικ για να δείτε τις μετεωρολογικές αναφορές και τις προγνώσεις καιρού.

Για να αλλάξετε το χάρτη: κάντε κλικ στα πράσινα κουμπιά με τον μαύρο σταυρό για να ζουμάρετε, στο πράσινο κουμπί με την παύλα για να αφαιρέσετε το ζουμ ή στα πράσινα βέλη για να αντιπαραβάλλετε χάρτες.


METAR-TAF: